sensor_id;sensor_type;location;lat;lon;timestamp;temperature;humidity
29713;DHT22;16623;53.632;10.016;2023-07-13T00:00:00;16.70;99.90
29713;DHT22;16623;53.632;10.016;2023-07-13T00:02:26;16.70;99.90
29713;DHT22;16623;53.632;10.016;2023-07-13T00:04:52;16.60;99.90
29713;DHT22;16623;53.632;10.016;2023-07-13T00:07:18;16.50;99.90
29713;DHT22;16623;53.632;10.016;2023-07-13T00:09:47;16.40;99.90
29713;DHT22;16623;53.632;10.016;2023-07-13T00:12:33;16.40;99.90
29713;DHT22;16623;53.632;10.016;2023-07-13T00:15:01;16.30;99.90
29713;DHT22;16623;53.632;10.016;2023-07-13T00:17:27;16.30;99.90
29713;DHT22;16623;53.632;10.016;2023-07-13T00:19:53;16.30;99.90
29713;DHT22;16623;53.632;10.016;2023-07-13T00:22:19;16.30;99.90
29713;DHT22;16623;53.632;10.016;2023-07-13T00:24:44;16.20;99.90
29713;DHT22;16623;53.632;10.016;2023-07-13T00:27:10;16.20;99.90
29713;DHT22;16623;53.632;10.016;2023-07-13T00:29:36;16.20;99.90
29713;DHT22;16623;53.632;10.016;2023-07-13T00:32:04;16.20;99.90
29713;DHT22;16623;53.632;10.016;2023-07-13T00:34:30;16.20;99.90
29713;DHT22;16623;53.632;10.016;2023-07-13T00:36:56;16.20;99.90
29713;DHT22;16623;53.632;10.016;2023-07-13T00:39:21;16.10;99.90
29713;DHT22;16623;53.632;10.016;2023-07-13T00:41:48;16.20;99.90
29713;DHT22;16623;53.632;10.016;2023-07-13T00:44:14;16.10;99.90
29713;DHT22;16623;53.632;10.016;2023-07-13T00:46:41;16.10;99.90
29713;DHT22;16623;53.632;10.016;2023-07-13T00:49:10;16.10;99.90
29713;DHT22;16623;53.632;10.016;2023-07-13T00:51:43;16.10;99.90
29713;DHT22;16623;53.632;10.016;2023-07-13T00:54:11;16.10;99.90
29713;DHT22;16623;53.632;10.016;2023-07-13T00:56:39;16.00;99.90
29713;DHT22;16623;53.632;10.016;2023-07-13T00:59:06;16.00;99.90
29713;DHT22;16623;53.632;10.016;2023-07-13T01:01:33;16.00;99.90
29713;DHT22;16623;53.632;10.016;2023-07-13T01:03:59;15.90;99.90
29713;DHT22;16623;53.632;10.016;2023-07-13T01:06:25;15.80;99.90
29713;DHT22;16623;53.632;10.016;2023-07-13T01:08:51;15.90;99.90
29713;DHT22;16623;53.632;10.016;2023-07-13T01:11:21;15.80;99.90
29713;DHT22;16623;53.632;10.016;2023-07-13T01:13:47;16.00;99.90
29713;DHT22;16623;53.632;10.016;2023-07-13T01:16:19;16.00;99.90
29713;DHT22;16623;53.632;10.016;2023-07-13T01:18:47;16.00;99.90
29713;DHT22;16623;53.632;10.016;2023-07-13T01:21:13;16.00;99.90
29713;DHT22;16623;53.632;10.016;2023-07-13T01:23:38;16.00;99.90
29713;DHT22;16623;53.632;10.016;2023-07-13T01:26:04;15.90;99.90
29713;DHT22;16623;53.632;10.016;2023-07-13T01:28:29;15.90;99.90
29713;DHT22;16623;53.632;10.016;2023-07-13T01:30:57;15.90;99.90
29713;DHT22;16623;53.632;10.016;2023-07-13T01:33:23;15.90;99.90
29713;DHT22;16623;53.632;10.016;2023-07-13T01:35:48;15.90;99.90
29713;DHT22;16623;53.632;10.016;2023-07-13T01:38:18;15.90;99.90
29713;DHT22;16623;53.632;10.016;2023-07-13T01:40:44;15.80;99.90
29713;DHT22;16623;53.632;10.016;2023-07-13T01:43:10;15.80;99.90
29713;DHT22;16623;53.632;10.016;2023-07-13T01:45:36;15.90;99.90
29713;DHT22;16623;53.632;10.016;2023-07-13T01:48:01;15.90;99.90
29713;DHT22;16623;53.632;10.016;2023-07-13T01:50:27;15.90;99.90
29713;DHT22;16623;53.632;10.016;2023-07-13T01:52:53;15.90;99.90
29713;DHT22;16623;53.632;10.016;2023-07-13T01:55:20;15.90;99.90
29713;DHT22;16623;53.632;10.016;2023-07-13T01:57:46;15.90;99.90
29713;DHT22;16623;53.632;10.016;2023-07-13T02:00:13;15.80;99.90
29713;DHT22;16623;53.632;10.016;2023-07-13T02:02:38;15.90;99.90
29713;DHT22;16623;53.632;10.016;2023-07-13T02:05:05;15.90;99.90
29713;DHT22;16623;53.632;10.016;2023-07-13T02:07:30;15.90;99.90
29713;DHT22;16623;53.632;10.016;2023-07-13T02:09:56;15.90;99.90
29713;DHT22;16623;53.632;10.016;2023-07-13T02:12:21;15.90;99.90
29713;DHT22;16623;53.632;10.016;2023-07-13T02:14:47;15.90;99.90
29713;DHT22;16623;53.632;10.016;2023-07-13T02:17:13;15.90;99.90
29713;DHT22;16623;53.632;10.016;2023-07-13T02:19:38;15.90;99.90
29713;DHT22;16623;53.632;10.016;2023-07-13T02:22:04;15.90;99.90
29713;DHT22;16623;53.632;10.016;2023-07-13T02:24:30;15.90;99.90
29713;DHT22;16623;53.632;10.016;2023-07-13T02:26:55;15.90;99.90
29713;DHT22;16623;53.632;10.016;2023-07-13T02:29:21;15.90;99.90
29713;DHT22;16623;53.632;10.016;2023-07-13T02:31:46;15.90;99.90
29713;DHT22;16623;53.632;10.016;2023-07-13T02:34:12;15.80;99.90
29713;DHT22;16623;53.632;10.016;2023-07-13T02:36:37;15.80;99.90
29713;DHT22;16623;53.632;10.016;2023-07-13T02:39:04;15.80;99.90
29713;DHT22;16623;53.632;10.016;2023-07-13T02:41:31;15.80;99.90
29713;DHT22;16623;53.632;10.016;2023-07-13T02:43:58;15.70;99.90
29713;DHT22;16623;53.632;10.016;2023-07-13T02:46:30;15.80;99.90
29713;DHT22;16623;53.632;10.016;2023-07-13T02:48:55;15.80;99.90
29713;DHT22;16623;53.632;10.016;2023-07-13T02:51:21;15.80;99.90
29713;DHT22;16623;53.632;10.016;2023-07-13T02:53:46;15.80;99.90
29713;DHT22;16623;53.632;10.016;2023-07-13T02:56:12;15.80;99.90
29713;DHT22;16623;53.632;10.016;2023-07-13T02:58:38;15.80;99.90
29713;DHT22;16623;53.632;10.016;2023-07-13T03:01:08;15.70;99.90
29713;DHT22;16623;53.632;10.016;2023-07-13T03:03:34;15.70;99.90
29713;DHT22;16623;53.632;10.016;2023-07-13T03:06:02;15.80;99.90
29713;DHT22;16623;53.632;10.016;2023-07-13T03:08:28;15.80;99.90
29713;DHT22;16623;53.632;10.016;2023-07-13T03:11:06;15.80;99.90
29713;DHT22;16623;53.632;10.016;2023-07-13T03:13:33;15.70;99.90
29713;DHT22;16623;53.632;10.016;2023-07-13T03:15:59;15.80;99.90
29713;DHT22;16623;53.632;10.016;2023-07-13T03:18:26;15.70;99.90
29713;DHT22;16623;53.632;10.016;2023-07-13T03:20:52;15.80;99.90
29713;DHT22;16623;53.632;10.016;2023-07-13T03:23:18;15.80;99.90
29713;DHT22;16623;53.632;10.016;2023-07-13T03:25:44;15.70;99.90
29713;DHT22;16623;53.632;10.016;2023-07-13T03:28:11;15.70;99.90
29713;DHT22;16623;53.632;10.016;2023-07-13T03:30:36;15.70;99.90
29713;DHT22;16623;53.632;10.016;2023-07-13T03:33:02;15.70;99.90
29713;DHT22;16623;53.632;10.016;2023-07-13T03:35:28;15.80;99.90
29713;DHT22;16623;53.632;10.016;2023-07-13T03:37:53;15.70;99.90
29713;DHT22;16623;53.632;10.016;2023-07-13T03:40:19;15.70;99.90
29713;DHT22;16623;53.632;10.016;2023-07-13T03:42:44;15.70;99.90
29713;DHT22;16623;53.632;10.016;2023-07-13T03:45:10;15.60;99.90
29713;DHT22;16623;53.632;10.016;2023-07-13T03:47:35;15.70;99.90
29713;DHT22;16623;53.632;10.016;2023-07-13T03:50:01;15.70;99.90
29713;DHT22;16623;53.632;10.016;2023-07-13T03:52:27;15.70;99.90
29713;DHT22;16623;53.632;10.016;2023-07-13T03:54:52;15.60;99.90
29713;DHT22;16623;53.632;10.016;2023-07-13T03:57:18;15.60;99.90
29713;DHT22;16623;53.632;10.016;2023-07-13T03:59:44;15.40;99.90
29713;DHT22;16623;53.632;10.016;2023-07-13T04:02:10;15.60;99.90
29713;DHT22;16623;53.632;10.016;2023-07-13T04:04:35;15.70;99.90
29713;DHT22;16623;53.632;10.016;2023-07-13T04:07:01;15.60;99.90
29713;DHT22;16623;53.632;10.016;2023-07-13T04:09:26;15.70;99.90
29713;DHT22;16623;53.632;10.016;2023-07-13T04:14:18;16.00;99.90
29713;DHT22;16623;53.632;10.016;2023-07-13T04:16:44;16.10;99.90
29713;DHT22;16623;53.632;10.016;2023-07-13T04:19:10;16.10;99.90
29713;DHT22;16623;53.632;10.016;2023-07-13T04:21:36;16.10;99.90
29713;DHT22;16623;53.632;10.016;2023-07-13T04:24:03;16.20;99.90
29713;DHT22;16623;53.632;10.016;2023-07-13T04:26:29;16.10;99.90
29713;DHT22;16623;53.632;10.016;2023-07-13T04:28:55;16.10;99.90
29713;DHT22;16623;53.632;10.016;2023-07-13T04:31:21;16.10;99.90
29713;DHT22;16623;53.632;10.016;2023-07-13T04:33:47;16.10;99.90
29713;DHT22;16623;53.632;10.016;2023-07-13T04:36:12;16.10;99.90
29713;DHT22;16623;53.632;10.016;2023-07-13T04:38:38;16.40;99.90
29713;DHT22;16623;53.632;10.016;2023-07-13T04:41:06;17.00;99.90
29713;DHT22;16623;53.632;10.016;2023-07-13T04:43:33;18.00;99.90
29713;DHT22;16623;53.632;10.016;2023-07-13T04:46:11;18.80;99.90
29713;DHT22;16623;53.632;10.016;2023-07-13T04:48:37;19.40;99.90
29713;DHT22;16623;53.632;10.016;2023-07-13T04:51:04;19.50;99.90
29713;DHT22;16623;53.632;10.016;2023-07-13T04:53:30;19.30;99.90
29713;DHT22;16623;53.632;10.016;2023-07-13T04:55:56;19.10;99.90
29713;DHT22;16623;53.632;10.016;2023-07-13T04:58:22;18.90;99.90
29713;DHT22;16623;53.632;10.016;2023-07-13T05:00:48;18.80;99.90
29713;DHT22;16623;53.632;10.016;2023-07-13T05:03:14;18.70;99.90
29713;DHT22;16623;53.632;10.016;2023-07-13T05:05:39;18.70;99.90
29713;DHT22;16623;53.632;10.016;2023-07-13T05:08:05;18.50;99.90
29713;DHT22;16623;53.632;10.016;2023-07-13T05:10:32;18.20;99.90
29713;DHT22;16623;53.632;10.016;2023-07-13T05:12:58;18.00;99.90
29713;DHT22;16623;53.632;10.016;2023-07-13T05:15:24;17.80;99.90
29713;DHT22;16623;53.632;10.016;2023-07-13T05:17:50;17.80;99.90
29713;DHT22;16623;53.632;10.016;2023-07-13T05:20:17;17.70;99.90
29713;DHT22;16623;53.632;10.016;2023-07-13T05:22:43;17.60;99.90
29713;DHT22;16623;53.632;10.016;2023-07-13T05:25:09;17.60;99.90
29713;DHT22;16623;53.632;10.016;2023-07-13T05:27:36;17.60;99.90
29713;DHT22;16623;53.632;10.016;2023-07-13T05:30:03;17.70;99.90
29713;DHT22;16623;53.632;10.016;2023-07-13T05:32:29;17.60;99.90
29713;DHT22;16623;53.632;10.016;2023-07-13T05:34:54;17.60;99.90
29713;DHT22;16623;53.632;10.016;2023-07-13T05:37:20;17.60;99.90
29713;DHT22;16623;53.632;10.016;2023-07-13T05:39:46;17.60;99.90
29713;DHT22;16623;53.632;10.016;2023-07-13T05:42:11;17.60;99.90
29713;DHT22;16623;53.632;10.016;2023-07-13T05:44:37;17.50;99.90
29713;DHT22;16623;53.632;10.016;2023-07-13T05:47:02;17.50;99.90
29713;DHT22;16623;53.632;10.016;2023-07-13T05:49:29;17.40;99.90
29713;DHT22;16623;53.632;10.016;2023-07-13T05:51:55;17.30;99.90
29713;DHT22;16623;53.632;10.016;2023-07-13T05:54:21;17.30;99.90
29713;DHT22;16623;53.632;10.016;2023-07-13T05:56:46;17.30;99.90
29713;DHT22;16623;53.632;10.016;2023-07-13T05:59:12;17.20;99.90
29713;DHT22;16623;53.632;10.016;2023-07-13T06:01:38;17.20;99.90
29713;DHT22;16623;53.632;10.016;2023-07-13T06:04:04;17.20;99.90
29713;DHT22;16623;53.632;10.016;2023-07-13T06:06:29;17.20;99.90
29713;DHT22;16623;53.632;10.016;2023-07-13T06:08:55;17.20;99.90
29713;DHT22;16623;53.632;10.016;2023-07-13T06:11:23;17.20;99.90
29713;DHT22;16623;53.632;10.016;2023-07-13T06:13:48;17.10;99.90
29713;DHT22;16623;53.632;10.016;2023-07-13T06:16:14;17.00;99.90
29713;DHT22;16623;53.632;10.016;2023-07-13T06:18:41;17.10;99.90
29713;DHT22;16623;53.632;10.016;2023-07-13T06:21:11;17.10;99.90
29713;DHT22;16623;53.632;10.016;2023-07-13T06:23:37;17.20;99.90
29713;DHT22;16623;53.632;10.016;2023-07-13T06:26:04;17.10;99.90
29713;DHT22;16623;53.632;10.016;2023-07-13T06:28:30;17.20;99.90
29713;DHT22;16623;53.632;10.016;2023-07-13T06:31:00;17.20;99.90
29713;DHT22;16623;53.632;10.016;2023-07-13T06:33:26;17.20;99.90
29713;DHT22;16623;53.632;10.016;2023-07-13T06:35:52;17.20;99.90
29713;DHT22;16623;53.632;10.016;2023-07-13T06:38:20;17.20;99.90
29713;DHT22;16623;53.632;10.016;2023-07-13T06:40:45;17.20;99.90
29713;DHT22;16623;53.632;10.016;2023-07-13T06:43:11;17.30;99.90
29713;DHT22;16623;53.632;10.016;2023-07-13T06:45:44;17.40;99.90
29713;DHT22;16623;53.632;10.016;2023-07-13T06:48:17;17.40;99.90
29713;DHT22;16623;53.632;10.016;2023-07-13T06:50:44;17.50;99.90
29713;DHT22;16623;53.632;10.016;2023-07-13T06:53:13;17.50;99.90
29713;DHT22;16623;53.632;10.016;2023-07-13T06:55:39;17.50;99.90
29713;DHT22;16623;53.632;10.016;2023-07-13T06:58:05;17.50;99.90
29713;DHT22;16623;53.632;10.016;2023-07-13T07:00:31;17.60;99.90
29713;DHT22;16623;53.632;10.016;2023-07-13T07:02:57;17.70;99.90
29713;DHT22;16623;53.632;10.016;2023-07-13T07:05:22;17.70;99.90
29713;DHT22;16623;53.632;10.016;2023-07-13T07:07:50;17.80;99.90
29713;DHT22;16623;53.632;10.016;2023-07-13T07:10:17;17.80;99.90
29713;DHT22;16623;53.632;10.016;2023-07-13T07:12:42;17.90;99.90
29713;DHT22;16623;53.632;10.016;2023-07-13T07:15:08;18.00;99.90
29713;DHT22;16623;53.632;10.016;2023-07-13T07:17:34;18.00;99.90
29713;DHT22;16623;53.632;10.016;2023-07-13T07:20:00;18.00;99.90
29713;DHT22;16623;53.632;10.016;2023-07-13T07:22:28;18.10;99.90
29713;DHT22;16623;53.632;10.016;2023-07-13T07:24:55;18.20;99.90
29713;DHT22;16623;53.632;10.016;2023-07-13T07:27:21;18.20;99.90
29713;DHT22;16623;53.632;10.016;2023-07-13T07:29:47;18.30;99.90
29713;DHT22;16623;53.632;10.016;2023-07-13T07:32:13;18.30;99.90
29713;DHT22;16623;53.632;10.016;2023-07-13T07:34:38;18.40;99.90
29713;DHT22;16623;53.632;10.016;2023-07-13T07:37:04;18.50;99.90
29713;DHT22;16623;53.632;10.016;2023-07-13T07:39:30;18.60;99.90
29713;DHT22;16623;53.632;10.016;2023-07-13T07:41:56;18.80;99.90
29713;DHT22;16623;53.632;10.016;2023-07-13T07:44:22;19.00;99.90
29713;DHT22;16623;53.632;10.016;2023-07-13T07:46:48;19.00;99.90
29713;DHT22;16623;53.632;10.016;2023-07-13T07:49:14;18.90;99.90
29713;DHT22;16623;53.632;10.016;2023-07-13T07:51:41;18.90;99.90
29713;DHT22;16623;53.632;10.016;2023-07-13T07:54:07;18.80;99.90
29713;DHT22;16623;53.632;10.016;2023-07-13T07:56:33;18.80;99.90
29713;DHT22;16623;53.632;10.016;2023-07-13T07:58:59;18.90;99.90
29713;DHT22;16623;53.632;10.016;2023-07-13T08:01:24;19.00;99.90
29713;DHT22;16623;53.632;10.016;2023-07-13T08:03:53;19.00;99.90
29713;DHT22;16623;53.632;10.016;2023-07-13T08:06:19;19.10;99.90
29713;DHT22;16623;53.632;10.016;2023-07-13T08:08:45;19.00;99.90
29713;DHT22;16623;53.632;10.016;2023-07-13T08:11:11;19.10;99.90
29713;DHT22;16623;53.632;10.016;2023-07-13T08:13:37;19.00;99.90
29713;DHT22;16623;53.632;10.016;2023-07-13T08:16:05;19.10;99.90
29713;DHT22;16623;53.632;10.016;2023-07-13T08:18:31;19.20;99.90
29713;DHT22;16623;53.632;10.016;2023-07-13T08:20:56;19.20;99.90
29713;DHT22;16623;53.632;10.016;2023-07-13T08:23:24;19.30;99.90
29713;DHT22;16623;53.632;10.016;2023-07-13T08:25:53;19.30;99.90
29713;DHT22;16623;53.632;10.016;2023-07-13T08:28:20;19.40;99.90
29713;DHT22;16623;53.632;10.016;2023-07-13T08:30:46;19.50;99.90
29713;DHT22;16623;53.632;10.016;2023-07-13T08:33:17;19.50;99.90
29713;DHT22;16623;53.632;10.016;2023-07-13T08:35:46;20.50;99.90
29713;DHT22;16623;53.632;10.016;2023-07-13T08:38:12;19.70;99.90
29713;DHT22;16623;53.632;10.016;2023-07-13T08:40:39;19.70;99.90
29713;DHT22;16623;53.632;10.016;2023-07-13T08:43:06;19.80;99.90
29713;DHT22;16623;53.632;10.016;2023-07-13T08:45:43;19.80;99.90
29713;DHT22;16623;53.632;10.016;2023-07-13T08:48:18;19.80;99.90
29713;DHT22;16623;53.632;10.016;2023-07-13T08:53:25;19.80;99.90
29713;DHT22;16623;53.632;10.016;2023-07-13T08:55:58;19.80;99.90
29713;DHT22;16623;53.632;10.016;2023-07-13T08:58:25;19.90;99.90
29713;DHT22;16623;53.632;10.016;2023-07-13T09:01:15;19.90;99.90
29713;DHT22;16623;53.632;10.016;2023-07-13T09:04:07;20.00;99.90
29713;DHT22;16623;53.632;10.016;2023-07-13T09:09:24;20.10;99.90
29713;DHT22;16623;53.632;10.016;2023-07-13T09:12:01;20.20;99.90
29713;DHT22;16623;53.632;10.016;2023-07-13T09:14:45;20.30;99.90
29713;DHT22;16623;53.632;10.016;2023-07-13T09:17:17;20.30;99.90
29713;DHT22;16623;53.632;10.016;2023-07-13T09:19:46;20.40;99.90
29713;DHT22;16623;53.632;10.016;2023-07-13T09:22:16;20.50;99.90
29713;DHT22;16623;53.632;10.016;2023-07-13T09:27:41;20.40;99.90
29713;DHT22;16623;53.632;10.016;2023-07-13T09:32:47;20.80;99.90
29713;DHT22;16623;53.632;10.016;2023-07-13T09:35:19;20.90;99.90
29713;DHT22;16623;53.632;10.016;2023-07-13T09:37:46;21.10;99.90
29713;DHT22;16623;53.632;10.016;2023-07-13T09:40:24;21.10;99.90
29713;DHT22;16623;53.632;10.016;2023-07-13T09:42:54;21.10;99.90
29713;DHT22;16623;53.632;10.016;2023-07-13T09:45:29;21.10;99.90
29713;DHT22;16623;53.632;10.016;2023-07-13T09:48:12;21.10;99.90
29713;DHT22;16623;53.632;10.016;2023-07-13T09:50:39;21.10;99.90
29713;DHT22;16623;53.632;10.016;2023-07-13T09:53:15;21.20;99.90
29713;DHT22;16623;53.632;10.016;2023-07-13T09:55:43;21.30;99.90
29713;DHT22;16623;53.632;10.016;2023-07-13T09:58:18;21.50;99.90
29713;DHT22;16623;53.632;10.016;2023-07-13T10:01:01;21.50;99.90
29713;DHT22;16623;53.632;10.016;2023-07-13T10:03:29;21.50;99.90
29713;DHT22;16623;53.632;10.016;2023-07-13T10:06:16;21.50;99.90
29713;DHT22;16623;53.632;10.016;2023-07-13T10:08:43;21.50;99.90
29713;DHT22;16623;53.632;10.016;2023-07-13T10:11:22;21.50;99.90
29713;DHT22;16623;53.632;10.016;2023-07-13T10:14:00;21.30;99.90
29713;DHT22;16623;53.632;10.016;2023-07-13T10:16:33;21.20;99.90
29713;DHT22;16623;53.632;10.016;2023-07-13T10:19:02;21.10;99.90
29713;DHT22;16623;53.632;10.016;2023-07-13T10:21:35;20.90;99.90
29713;DHT22;16623;53.632;10.016;2023-07-13T10:24:23;21.00;99.90
29713;DHT22;16623;53.632;10.016;2023-07-13T10:27:16;21.10;99.90
29713;DHT22;16623;53.632;10.016;2023-07-13T10:29:53;21.50;99.90
29713;DHT22;16623;53.632;10.016;2023-07-13T10:32:24;21.80;99.90
29713;DHT22;16623;53.632;10.016;2023-07-13T10:34:51;22.00;99.90
29713;DHT22;16623;53.632;10.016;2023-07-13T10:37:28;22.10;99.90
29713;DHT22;16623;53.632;10.016;2023-07-13T10:39:56;22.30;99.90
29713;DHT22;16623;53.632;10.016;2023-07-13T10:42:39;22.10;99.90
29713;DHT22;16623;53.632;10.016;2023-07-13T10:45:23;22.20;99.90
29713;DHT22;16623;53.632;10.016;2023-07-13T10:47:51;22.60;99.90
29713;DHT22;16623;53.632;10.016;2023-07-13T10:50:23;23.20;99.90
29713;DHT22;16623;53.632;10.016;2023-07-13T10:52:54;23.20;99.90
29713;DHT22;16623;53.632;10.016;2023-07-13T10:55:41;23.10;99.90
29713;DHT22;16623;53.632;10.016;2023-07-13T10:58:24;22.90;99.90
29713;DHT22;16623;53.632;10.016;2023-07-13T11:01:08;22.80;99.90
29713;DHT22;16623;53.632;10.016;2023-07-13T11:03:48;22.70;99.90
29713;DHT22;16623;53.632;10.016;2023-07-13T11:06:37;22.70;99.90
29713;DHT22;16623;53.632;10.016;2023-07-13T11:09:39;22.70;99.90
29713;DHT22;16623;53.632;10.016;2023-07-13T11:19:54;22.80;99.90
29713;DHT22;16623;53.632;10.016;2023-07-13T11:23:06;22.70;99.90
29713;DHT22;16623;53.632;10.016;2023-07-13T11:25:35;22.80;99.90
29713;DHT22;16623;53.632;10.016;2023-07-13T11:38:36;23.30;99.90
29713;DHT22;16623;53.632;10.016;2023-07-13T11:41:17;23.30;99.90
29713;DHT22;16623;53.632;10.016;2023-07-13T11:43:45;22.70;99.90
29713;DHT22;16623;53.632;10.016;2023-07-13T11:46:17;22.50;99.90
29713;DHT22;16623;53.632;10.016;2023-07-13T11:48:46;22.40;99.90
29713;DHT22;16623;53.632;10.016;2023-07-13T11:51:21;22.30;99.90
29713;DHT22;16623;53.632;10.016;2023-07-13T11:53:49;22.20;99.90
29713;DHT22;16623;53.632;10.016;2023-07-13T11:56:16;22.20;99.90
29713;DHT22;16623;53.632;10.016;2023-07-13T11:58:43;22.10;99.90
29713;DHT22;16623;53.632;10.016;2023-07-13T12:01:24;22.10;99.90
29713;DHT22;16623;53.632;10.016;2023-07-13T12:03:52;22.00;99.90
29713;DHT22;16623;53.632;10.016;2023-07-13T12:06:28;22.00;99.90
29713;DHT22;16623;53.632;10.016;2023-07-13T12:09:03;22.00;99.90
29713;DHT22;16623;53.632;10.016;2023-07-13T12:11:34;22.10;99.90
29713;DHT22;16623;53.632;10.016;2023-07-13T12:14:02;21.90;99.90
29713;DHT22;16623;53.632;10.016;2023-07-13T12:16:31;21.50;99.90
29713;DHT22;16623;53.632;10.016;2023-07-13T12:19:00;21.20;99.90
29713;DHT22;16623;53.632;10.016;2023-07-13T12:21:32;21.00;99.90
29713;DHT22;16623;53.632;10.016;2023-07-13T12:23:59;20.40;99.90
29713;DHT22;16623;53.632;10.016;2023-07-13T12:26:29;19.60;99.90
29713;DHT22;16623;53.632;10.016;2023-07-13T12:28:56;19.10;99.90
29713;DHT22;16623;53.632;10.016;2023-07-13T12:34:25;18.20;99.90
29713;DHT22;16623;53.632;10.016;2023-07-13T12:37:01;17.70;99.90
29713;DHT22;16623;53.632;10.016;2023-07-13T12:39:34;17.40;99.90
29713;DHT22;16623;53.632;10.016;2023-07-13T12:42:26;17.30;99.90
29713;DHT22;16623;53.632;10.016;2023-07-13T12:44:59;17.30;99.90
29713;DHT22;16623;53.632;10.016;2023-07-13T12:47:26;17.30;99.90
29713;DHT22;16623;53.632;10.016;2023-07-13T12:49:59;17.40;99.90
29713;DHT22;16623;53.632;10.016;2023-07-13T12:52:32;17.60;99.90
29713;DHT22;16623;53.632;10.016;2023-07-13T12:55:04;17.70;99.90
29713;DHT22;16623;53.632;10.016;2023-07-13T12:57:31;18.00;99.90
29713;DHT22;16623;53.632;10.016;2023-07-13T12:59:58;18.10;99.90
29713;DHT22;16623;53.632;10.016;2023-07-13T13:02:30;18.30;99.90
29713;DHT22;16623;53.632;10.016;2023-07-13T13:05:00;18.40;99.90
29713;DHT22;16623;53.632;10.016;2023-07-13T13:07:27;18.60;99.90
29713;DHT22;16623;53.632;10.016;2023-07-13T13:09:53;18.70;99.90
29713;DHT22;16623;53.632;10.016;2023-07-13T13:12:20;18.80;99.90
29713;DHT22;16623;53.632;10.016;2023-07-13T13:14:47;18.80;99.90
29713;DHT22;16623;53.632;10.016;2023-07-13T13:17:32;18.90;99.90
29713;DHT22;16623;53.632;10.016;2023-07-13T13:19:59;18.90;99.90
29713;DHT22;16623;53.632;10.016;2023-07-13T13:22:26;18.90;99.90
29713;DHT22;16623;53.632;10.016;2023-07-13T13:24:52;18.80;99.90
29713;DHT22;16623;53.632;10.016;2023-07-13T13:27:19;18.80;99.90
29713;DHT22;16623;53.632;10.016;2023-07-13T13:29:49;18.90;99.90
29713;DHT22;16623;53.632;10.016;2023-07-13T13:32:17;18.90;99.90
29713;DHT22;16623;53.632;10.016;2023-07-13T13:34:45;19.00;99.90
29713;DHT22;16623;53.632;10.016;2023-07-13T13:37:20;18.90;99.90
29713;DHT22;16623;53.632;10.016;2023-07-13T13:39:46;18.80;99.90
29713;DHT22;16623;53.632;10.016;2023-07-13T13:42:13;18.80;99.90
29713;DHT22;16623;53.632;10.016;2023-07-13T13:44:39;18.90;99.90
29713;DHT22;16623;53.632;10.016;2023-07-13T13:47:24;19.00;99.90
29713;DHT22;16623;53.632;10.016;2023-07-13T13:49:53;19.10;99.90
29713;DHT22;16623;53.632;10.016;2023-07-13T13:52:19;19.20;99.90
29713;DHT22;16623;53.632;10.016;2023-07-13T13:54:46;19.30;99.90
29713;DHT22;16623;53.632;10.016;2023-07-13T13:57:12;19.30;99.90
29713;DHT22;16623;53.632;10.016;2023-07-13T13:59:39;19.30;99.90
29713;DHT22;16623;53.632;10.016;2023-07-13T14:02:25;19.30;99.90
29713;DHT22;16623;53.632;10.016;2023-07-13T14:05:01;19.40;99.90
29713;DHT22;16623;53.632;10.016;2023-07-13T14:07:28;19.30;99.90
29713;DHT22;16623;53.632;10.016;2023-07-13T14:09:58;19.30;99.90
29713;DHT22;16623;53.632;10.016;2023-07-13T14:12:27;19.50;99.90
29713;DHT22;16623;53.632;10.016;2023-07-13T14:14:55;19.50;99.90
29713;DHT22;16623;53.632;10.016;2023-07-13T14:17:24;19.70;99.90
29713;DHT22;16623;53.632;10.016;2023-07-13T14:19:51;20.00;99.90
29713;DHT22;16623;53.632;10.016;2023-07-13T14:22:20;20.10;99.90
29713;DHT22;16623;53.632;10.016;2023-07-13T14:24:46;20.20;99.90
29713;DHT22;16623;53.632;10.016;2023-07-13T14:27:12;20.10;99.90
29713;DHT22;16623;53.632;10.016;2023-07-13T14:29:38;20.00;99.90
29713;DHT22;16623;53.632;10.016;2023-07-13T14:32:04;19.90;99.90
29713;DHT22;16623;53.632;10.016;2023-07-13T14:34:32;19.80;99.90
29713;DHT22;16623;53.632;10.016;2023-07-13T14:36:58;19.90;99.90
29713;DHT22;16623;53.632;10.016;2023-07-13T14:39:24;19.90;99.90
29713;DHT22;16623;53.632;10.016;2023-07-13T14:41:52;20.00;99.90
29713;DHT22;16623;53.632;10.016;2023-07-13T14:44:21;20.00;99.90
29713;DHT22;16623;53.632;10.016;2023-07-13T14:46:48;19.90;99.90
29713;DHT22;16623;53.632;10.016;2023-07-13T14:49:41;19.80;99.90
29713;DHT22;16623;53.632;10.016;2023-07-13T14:52:13;19.80;99.90
29713;DHT22;16623;53.632;10.016;2023-07-13T14:54:39;19.90;99.90
29713;DHT22;16623;53.632;10.016;2023-07-13T14:57:15;20.00;99.90
29713;DHT22;16623;53.632;10.016;2023-07-13T14:59:41;20.10;99.90
29713;DHT22;16623;53.632;10.016;2023-07-13T15:02:28;20.10;99.90
29713;DHT22;16623;53.632;10.016;2023-07-13T15:04:55;20.10;99.90
29713;DHT22;16623;53.632;10.016;2023-07-13T15:07:21;20.00;99.90
29713;DHT22;16623;53.632;10.016;2023-07-13T15:09:48;20.00;99.90
29713;DHT22;16623;53.632;10.016;2023-07-13T15:12:14;20.00;99.90
29713;DHT22;16623;53.632;10.016;2023-07-13T15:14:40;20.10;99.90
29713;DHT22;16623;53.632;10.016;2023-07-13T15:17:24;20.30;99.90
29713;DHT22;16623;53.632;10.016;2023-07-13T15:19:51;20.40;99.90
29713;DHT22;16623;53.632;10.016;2023-07-13T15:22:19;20.50;99.90
29713;DHT22;16623;53.632;10.016;2023-07-13T15:24:45;20.60;99.90
29713;DHT22;16623;53.632;10.016;2023-07-13T15:27:12;20.80;99.90
29713;DHT22;16623;53.632;10.016;2023-07-13T15:29:38;21.00;99.90
29713;DHT22;16623;53.632;10.016;2023-07-13T15:32:07;20.90;99.90
29713;DHT22;16623;53.632;10.016;2023-07-13T15:34:35;20.80;99.90
29713;DHT22;16623;53.632;10.016;2023-07-13T15:37:01;20.70;99.90
29713;DHT22;16623;53.632;10.016;2023-07-13T15:39:26;20.50;99.90
29713;DHT22;16623;53.632;10.016;2023-07-13T15:41:52;20.60;99.90
29713;DHT22;16623;53.632;10.016;2023-07-13T15:44:28;20.50;99.90
29713;DHT22;16623;53.632;10.016;2023-07-13T15:46:55;20.40;99.90
29713;DHT22;16623;53.632;10.016;2023-07-13T15:49:22;20.50;99.90
29713;DHT22;16623;53.632;10.016;2023-07-13T15:51:49;20.50;99.90
29713;DHT22;16623;53.632;10.016;2023-07-13T15:54:17;20.60;99.90
29713;DHT22;16623;53.632;10.016;2023-07-13T15:56:51;20.70;99.90
29713;DHT22;16623;53.632;10.016;2023-07-13T15:59:19;20.70;99.90